Time;durP1;ratioP1;P1;durP2;ratioP2;P2;SDS_P1;SDS_P2;PMS_P1;PMS_P2;Temp;Humidity;BMP_temperature;BMP_pressure;BME280_temperature;BME280_humidity;BME280_pressure;Samples;Min_cycle;Max_cycle;Signal;HPM_P1;HPM_P2
2022/07/15 00:01:52;;;;;;;;;;;13.70;99.90;;;;;;6308686;22;20281;-85
2022/07/15 00:04:18;;;;;;;;;;;13.80;99.90;;;;;;6306932;22;20017;-82
2022/07/15 00:06:43;;;;;;;;;;;13.80;99.90;;;;;;6360986;22;19922;-81
2022/07/15 00:09:09;;;;;;;;;;;13.80;99.90;;;;;;6362578;22;19922;-82
2022/07/15 00:11:35;;;;;;;;;;;13.80;99.90;;;;;;6334447;22;19922;-82
2022/07/15 00:14:01;;;;;;;;;;;13.80;99.90;;;;;;6308489;22;19914;-82
2022/07/15 00:16:26;;;;;;;;;;;13.80;99.90;;;;;;6281778;22;19918;-84
2022/07/15 00:18:52;;;;;;;;;;;13.80;99.90;;;;;;6307948;22;19921;-82
2022/07/15 00:21:18;;;;;;;;;;;13.80;99.90;;;;;;6282194;22;19922;-82
2022/07/15 00:23:45;;;;;;;;;;;13.80;99.90;;;;;;6334509;22;19925;-82
2022/07/15 00:26:10;;;;;;;;;;;13.80;99.90;;;;;;6334711;22;19997;-82
2022/07/15 00:28:36;;;;;;;;;;;13.80;99.90;;;;;;6334947;22;20425;-84
2022/07/15 00:31:02;;;;;;;;;;;13.80;99.90;;;;;;6310500;22;19952;-82
2022/07/15 00:33:28;;;;;;;;;;;13.80;99.90;;;;;;6309358;22;19922;-83
2022/07/15 00:35:54;;;;;;;;;;;13.90;99.90;;;;;;6335410;22;19991;-83
2022/07/15 00:38:21;;;;;;;;;;;13.90;99.90;;;;;;6313454;22;19922;-82
2022/07/15 00:40:50;;;;;;;;;;;13.90;99.90;;;;;;6340337;22;20298;-82
2022/07/15 00:43:16;;;;;;;;;;;13.90;99.90;;;;;;6310524;22;19918;-83
2022/07/15 00:45:43;;;;;;;;;;;13.90;99.90;;;;;;6334864;22;19937;-82
2022/07/15 00:48:09;;;;;;;;;;;13.90;99.90;;;;;;6335389;22;19963;-83
2022/07/15 00:50:36;;;;;;;;;;;13.90;99.90;;;;;;6308857;22;19918;-83
2022/07/15 00:53:07;;;;;;;;;;;13.90;99.90;;;;;;6310009;22;19918;-83
2022/07/15 00:55:37;;;;;;;;;;;13.90;99.90;;;;;;6336037;22;19914;-83
2022/07/15 00:58:04;;;;;;;;;;;13.90;99.90;;;;;;6309971;22;20354;-83
2022/07/15 01:00:33;;;;;;;;;;;13.80;99.90;;;;;;6336175;22;19983;-82
2022/07/15 01:03:00;;;;;;;;;;;13.80;99.90;;;;;;6335461;22;19922;-83
2022/07/15 01:05:26;;;;;;;;;;;13.80;99.90;;;;;;6334675;22;19943;-83
2022/07/15 01:07:52;;;;;;;;;;;13.70;99.90;;;;;;6335305;22;19921;-83
2022/07/15 01:10:23;;;;;;;;;;;13.70;99.90;;;;;;6336072;22;19922;-83
2022/07/15 01:12:50;;;;;;;;;;;13.70;99.90;;;;;;6310107;22;19914;-83
2022/07/15 01:15:16;;;;;;;;;;;13.70;99.90;;;;;;6309525;22;19914;-83
2022/07/15 01:17:44;;;;;;;;;;;13.60;99.90;;;;;;6335881;22;20449;-84
2022/07/15 01:20:10;;;;;;;;;;;13.60;99.90;;;;;;6334013;22;19918;-82
2022/07/15 01:22:35;;;;;;;;;;;13.60;99.90;;;;;;6310583;22;19936;-83
2022/07/15 01:25:01;;;;;;;;;;;13.60;99.90;;;;;;6335971;22;19921;-83
2022/07/15 01:27:27;;;;;;;;;;;13.60;99.90;;;;;;6309274;22;19946;-84
2022/07/15 01:29:53;;;;;;;;;;;13.60;99.90;;;;;;6334654;22;20437;-84
2022/07/15 01:32:19;;;;;;;;;;;13.60;99.90;;;;;;6336573;22;19925;-85
2022/07/15 01:34:49;;;;;;;;;;;13.60;99.90;;;;;;6333850;22;19987;-85
2022/07/15 01:37:15;;;;;;;;;;;13.60;99.90;;;;;;6284903;22;20301;-85
2022/07/15 01:39:41;;;;;;;;;;;13.60;99.90;;;;;;6309847;22;20319;-84
2022/07/15 01:42:07;;;;;;;;;;;13.50;99.90;;;;;;6310509;22;20398;-84
2022/07/15 01:44:34;;;;;;;;;;;13.50;99.90;;;;;;6311091;22;19957;-84
2022/07/15 01:46:59;;;;;;;;;;;13.50;99.90;;;;;;6313812;22;19921;-85
2022/07/15 01:52:37;;;;;;;;;;;13.50;99.90;;;;;;6339648;22;19975;-83
2022/07/15 01:55:04;;;;;;;;;;;13.40;99.90;;;;;;6337997;22;19918;-86
2022/07/15 01:57:30;;;;;;;;;;;13.40;99.90;;;;;;6310374;22;20000;-83
2022/07/15 01:59:56;;;;;;;;;;;13.40;99.90;;;;;;6335479;22;19984;-84
2022/07/15 02:02:21;;;;;;;;;;;13.30;99.90;;;;;;6308797;22;19962;-84
2022/07/15 02:04:47;;;;;;;;;;;13.30;99.90;;;;;;6307325;22;19914;-83
2022/07/15 02:13:27;;;;;;;;;;;13.20;99.90;;;;;;6208890;23;19916;-88
2022/07/15 02:15:57;;;;;;;;;;;13.20;99.90;;;;;;6235752;23;19916;-87
2022/07/15 02:18:25;;;;;;;;;;;13.20;99.90;;;;;;6209142;23;20347;-86
2022/07/15 02:20:51;;;;;;;;;;;13.20;99.90;;;;;;6183838;23;19920;-84
2022/07/15 02:26:26;;;;;;;;;;;13.20;99.90;;;;;;6318319;22;19924;-86
2022/07/15 02:28:52;;;;;;;;;;;13.20;99.90;;;;;;6305052;22;19971;-86
2022/07/15 02:31:18;;;;;;;;;;;13.20;99.90;;;;;;6306130;22;19949;-86
2022/07/15 02:34:01;;;;;;;;;;;13.10;99.90;;;;;;6308845;22;19918;-85
2022/07/15 02:36:27;;;;;;;;;;;13.10;99.90;;;;;;6279419;22;19915;-85
2022/07/15 02:38:58;;;;;;;;;;;13.00;99.90;;;;;;6306330;22;19918;-84
2022/07/15 02:41:44;;;;;;;;;;;13.10;99.90;;;;;;6334063;22;20250;-87
2022/07/15 02:53:19;;;;;;;;;;;12.90;99.90;;;;;;6306336;22;19921;-85
2022/07/15 02:55:48;;;;;;;;;;;12.90;99.90;;;;;;6280323;22;19914;-83
2022/07/15 02:58:14;;;;;;;;;;;12.90;99.90;;;;;;6279933;22;20262;-85
2022/07/15 03:00:40;;;;;;;;;;;12.90;99.90;;;;;;6304672;22;19911;-86
2022/07/15 03:03:28;;;;;;;;;;;12.90;99.90;;;;;;6279081;22;20660;-86
2022/07/15 03:06:18;;;;;;;;;;;13.00;99.90;;;;;;6280795;22;19919;-85
2022/07/15 03:08:51;;;;;;;;;;;13.00;99.90;;;;;;6282673;22;19982;-86
2022/07/15 03:11:18;;;;;;;;;;;13.00;99.90;;;;;;6282931;22;20343;-84
2022/07/15 03:13:43;;;;;;;;;;;12.80;99.90;;;;;;6289631;22;19921;-83
2022/07/15 03:16:40;;;;;;;;;;;13.00;99.90;;;;;;6285372;22;19918;-85
2022/07/15 03:19:07;;;;;;;;;;;13.00;99.90;;;;;;6310879;22;19918;-86
2022/07/15 03:21:39;;;;;;;;;;;12.90;99.90;;;;;;6285219;22;19983;-85
2022/07/15 03:24:12;;;;;;;;;;;12.90;99.90;;;;;;6310491;22;19914;-84
2022/07/15 03:26:38;;;;;;;;;;;12.90;99.90;;;;;;6310501;22;19918;-85
2022/07/15 03:29:09;;;;;;;;;;;12.90;99.90;;;;;;6304990;22;19957;-85
2022/07/15 03:31:48;;;;;;;;;;;12.90;99.90;;;;;;6239137;22;19915;-84
2022/07/15 03:34:27;;;;;;;;;;;12.90;99.90;;;;;;6213248;23;19918;-85
2022/07/15 03:37:05;;;;;;;;;;;12.90;99.90;;;;;;6261088;22;20697;-85
2022/07/15 03:39:30;;;;;;;;;;;12.90;99.90;;;;;;6236969;23;20382;-85
2022/07/15 03:41:56;;;;;;;;;;;13.40;99.90;;;;;;6211075;23;19987;-84
2022/07/15 03:44:22;;;;;;;;;;;13.00;99.90;;;;;;6236343;23;19919;-84
2022/07/15 03:46:48;;;;;;;;;;;13.00;99.90;;;;;;6211486;23;19953;-85
2022/07/15 03:49:14;;;;;;;;;;;13.00;99.90;;;;;;6235894;23;19916;-85
2022/07/15 03:51:43;;;;;;;;;;;13.00;99.90;;;;;;6235566;22;19919;-86
2022/07/15 03:54:27;;;;;;;;;;;13.00;99.90;;;;;;6187574;23;20728;-85
2022/07/15 03:57:14;;;;;;;;;;;13.10;99.90;;;;;;6214866;23;19922;-89
2022/07/15 04:00:13;;;;;;;;;;;13.10;99.90;;;;;;6265483;22;19915;-89
2022/07/15 04:02:39;;;;;;;;;;;13.10;99.90;;;;;;6266907;22;19942;-88
2022/07/15 04:05:14;;;;;;;;;;;13.10;99.90;;;;;;6242143;23;19915;-86
2022/07/15 04:07:40;;;;;;;;;;;13.10;99.90;;;;;;6216976;23;19919;-89
2022/07/15 04:10:07;;;;;;;;;;;13.20;99.90;;;;;;6275695;22;20451;-89
2022/07/15 04:12:37;;;;;;;;;;;13.20;99.90;;;;;;6307224;22;19914;-88
2022/07/15 04:15:09;;;;;;;;;;;13.20;99.90;;;;;;6224756;22;19941;-80
2022/07/15 04:17:35;;;;;;;;;;;12.40;99.90;;;;;;6218840;22;20332;-84
2022/07/15 04:20:03;;;;;;;;;;;13.20;99.90;;;;;;6245128;22;19947;-88
2022/07/15 04:22:30;;;;;;;;;;;13.30;99.90;;;;;;6223427;22;19923;-89
2022/07/15 04:24:56;;;;;;;;;;;13.30;99.90;;;;;;6248705;22;20375;-89
2022/07/15 04:27:31;;;;;;;;;;;13.30;99.90;;;;;;6226877;22;19947;-88
2022/07/15 04:30:00;;;;;;;;;;;13.30;99.90;;;;;;6222492;22;19950;-88
2022/07/15 04:32:26;;;;;;;;;;;13.30;99.90;;;;;;6222151;22;19915;-83
2022/07/15 04:34:53;;;;;;;;;;;13.30;99.90;;;;;;6243334;22;19965;-84
2022/07/15 04:37:22;;;;;;;;;;;13.30;99.90;;;;;;6223491;22;20522;-87
2022/07/15 04:39:51;;;;;;;;;;;13.30;99.90;;;;;;6250046;22;19986;-89
2022/07/15 04:42:19;;;;;;;;;;;13.30;99.90;;;;;;6249302;22;19984;-88
2022/07/15 04:44:45;;;;;;;;;;;13.30;99.90;;;;;;6256865;22;19914;-89
2022/07/15 04:50:46;;;;;;;;;;;13.30;99.90;;;;;;6304430;22;19909;-88
2022/07/15 04:53:12;;;;;;;;;;;13.40;99.90;;;;;;6253838;22;19915;-86
2022/07/15 04:55:38;;;;;;;;;;;13.40;99.90;;;;;;6302703;22;19937;-84
2022/07/15 05:10:13;;;;;;;;;;;13.60;99.90;;;;;;6323246;22;19922;-84
2022/07/15 05:12:39;;;;;;;;;;;13.50;99.90;;;;;;6304252;22;20449;-83
2022/07/15 05:17:57;;;;;;;;;;;13.60;99.90;;;;;;6304889;22;19919;-84
2022/07/15 05:20:34;;;;;;;;;;;13.50;99.90;;;;;;6253694;22;19914;-84
2022/07/15 05:23:00;;;;;;;;;;;13.50;99.90;;;;;;6254096;22;19926;-84
2022/07/15 05:25:29;;;;;;;;;;;13.60;99.90;;;;;;6253985;22;20356;-83
2022/07/15 05:27:57;;;;;;;;;;;13.60;99.90;;;;;;6280400;22;19914;-83
2022/07/15 05:30:23;;;;;;;;;;;13.20;99.90;;;;;;6281855;22;20006;-82
2022/07/15 05:35:54;;;;;;;;;;;13.80;99.90;;;;;;6331074;22;19929;-84
2022/07/15 05:38:39;;;;;;;;;;;13.90;99.90;;;;;;6281223;22;20321;-83
2022/07/15 05:41:06;;;;;;;;;;;13.90;99.90;;;;;;6279423;22;20168;-84
2022/07/15 05:43:33;;;;;;;;;;;14.00;99.90;;;;;;6280277;22;19922;-84
2022/07/15 05:46:08;;;;;;;;;;;14.00;99.90;;;;;;6281445;22;19919;-84
2022/07/15 05:48:35;;;;;;;;;;;14.10;99.90;;;;;;6305177;22;19929;-84
2022/07/15 05:54:14;;;;;;;;;;;14.20;99.90;;;;;;6274197;22;20369;-81
2022/07/15 05:56:46;;;;;;;;;;;14.20;99.90;;;;;;6305693;22;19922;-83
2022/07/15 06:05:41;;;;;;;;;;;14.30;99.90;;;;;;6302511;22;20111;-81
2022/07/15 06:08:07;;;;;;;;;;;14.30;99.90;;;;;;6305490;22;19946;-81
2022/07/15 06:10:35;;;;;;;;;;;14.30;99.90;;;;;;6278635;22;19925;-86
2022/07/15 06:13:00;;;;;;;;;;;14.30;99.90;;;;;;6278845;22;19915;-84
2022/07/15 06:18:50;;;;;;;;;;;14.30;99.90;;;;;;6279045;22;19914;-84
2022/07/15 06:21:16;;;;;;;;;;;14.30;99.90;;;;;;6308494;22;19914;-87
2022/07/15 06:23:42;;;;;;;;;;;14.40;99.90;;;;;;6308950;22;19914;-85
2022/07/15 06:26:11;;;;;;;;;;;14.40;99.90;;;;;;6309214;22;20341;-83
2022/07/15 06:28:36;;;;;;;;;;;14.30;99.90;;;;;;6285389;22;19914;-85
2022/07/15 06:31:02;;;;;;;;;;;14.30;99.90;;;;;;6335099;22;19914;-81
2022/07/15 06:33:41;;;;;;;;;;;14.20;99.90;;;;;;6336817;22;19917;-80
2022/07/15 06:36:07;;;;;;;;;;;14.20;99.90;;;;;;6280255;22;19914;-81
2022/07/15 06:38:33;;;;;;;;;;;14.10;99.90;;;;;;6310289;22;20003;-82
2022/07/15 06:40:59;;;;;;;;;;;14.20;99.90;;;;;;6307527;22;19927;-81
2022/07/15 06:43:25;;;;;;;;;;;14.50;99.90;;;;;;6363257;22;19915;-79
2022/07/15 06:45:51;;;;;;;;;;;14.90;99.90;;;;;;6335133;22;19918;-81
2022/07/15 06:48:16;;;;;;;;;;;15.10;99.90;;;;;;6283260;22;20001;-84
2022/07/15 06:50:43;;;;;;;;;;;15.10;99.90;;;;;;6306448;22;20037;-83
2022/07/15 06:53:09;;;;;;;;;;;15.10;99.90;;;;;;6335740;22;19993;-80
2022/07/15 06:55:34;;;;;;;;;;;15.10;99.90;;;;;;6283978;22;19957;-81
2022/07/15 06:58:00;;;;;;;;;;;15.10;99.90;;;;;;6308818;22;19923;-81
2022/07/15 07:00:26;;;;;;;;;;;15.10;99.90;;;;;;6281991;22;19918;-81
2022/07/15 07:02:52;;;;;;;;;;;15.00;99.90;;;;;;6334895;22;19941;-80
2022/07/15 07:05:17;;;;;;;;;;;15.00;99.90;;;;;;6306802;22;19918;-80
2022/07/15 07:07:43;;;;;;;;;;;15.00;99.90;;;;;;6308797;22;20144;-82
2022/07/15 07:10:09;;;;;;;;;;;14.90;99.90;;;;;;6308704;22;19921;-81
2022/07/15 07:12:38;;;;;;;;;;;14.90;99.90;;;;;;6308837;22;19918;-82
2022/07/15 07:15:06;;;;;;;;;;;14.90;99.90;;;;;;6334040;22;19918;-81
2022/07/15 07:17:31;;;;;;;;;;;14.90;99.90;;;;;;6283479;22;20342;-81
2022/07/15 07:19:58;;;;;;;;;;;15.10;99.90;;;;;;6306159;22;19918;-81
2022/07/15 07:22:24;;;;;;;;;;;15.30;99.90;;;;;;6282303;22;19917;-81
2022/07/15 07:24:53;;;;;;;;;;;15.50;99.90;;;;;;6308487;22;20369;-80
2022/07/15 07:27:26;;;;;;;;;;;16.20;99.90;;;;;;6283282;22;19922;-80
2022/07/15 07:29:55;;;;;;;;;;;17.20;99.90;;;;;;6334154;22;19914;-80
2022/07/15 07:32:21;;;;;;;;;;;17.30;99.90;;;;;;6308265;22;19921;-80
2022/07/15 07:34:47;;;;;;;;;;;17.30;99.90;;;;;;6332426;22;19913;-81
2022/07/15 07:37:13;;;;;;;;;;;18.20;99.90;;;;;;6334038;22;20317;-82
2022/07/15 07:39:38;;;;;;;;;;;19.10;99.90;;;;;;6309246;22;20361;-85
2022/07/15 07:42:04;;;;;;;;;;;19.00;99.90;;;;;;6309297;22;20086;-86
2022/07/15 07:44:30;;;;;;;;;;;18.50;99.90;;;;;;6308633;22;20076;-82
2022/07/15 07:46:56;;;;;;;;;;;18.10;99.90;;;;;;6308150;22;19952;-82
2022/07/15 07:49:22;;;;;;;;;;;17.70;99.90;;;;;;6307101;22;20327;-79
2022/07/15 07:51:48;;;;;;;;;;;17.30;99.90;;;;;;6307778;22;19918;-82
2022/07/15 07:54:14;;;;;;;;;;;17.10;99.90;;;;;;6308902;22;19920;-79
2022/07/15 07:56:39;;;;;;;;;;;16.90;99.90;;;;;;6308826;22;20024;-81
2022/07/15 07:59:05;;;;;;;;;;;16.80;99.90;;;;;;6334829;22;19914;-80
2022/07/15 08:01:32;;;;;;;;;;;16.60;99.90;;;;;;6362037;22;19924;-80
2022/07/15 08:03:57;;;;;;;;;;;16.70;99.90;;;;;;6306372;22;19914;-81
2022/07/15 08:06:23;;;;;;;;;;;17.00;99.90;;;;;;6306696;22;20335;-81
2022/07/15 08:08:50;;;;;;;;;;;17.10;99.90;;;;;;6308502;22;19918;-82
2022/07/15 08:11:15;;;;;;;;;;;17.00;99.90;;;;;;6282750;22;19963;-84
2022/07/15 08:13:41;;;;;;;;;;;16.90;99.90;;;;;;6307683;22;19918;-83
2022/07/15 08:16:07;;;;;;;;;;;16.80;99.90;;;;;;6282154;22;19918;-83
2022/07/15 08:18:33;;;;;;;;;;;16.80;99.90;;;;;;6307477;22;19985;-82
2022/07/15 08:20:59;;;;;;;;;;;17.10;99.90;;;;;;6307066;22;19948;-84
2022/07/15 08:23:32;;;;;;;;;;;17.40;99.90;;;;;;6333880;22;19921;-82
2022/07/15 08:25:59;;;;;;;;;;;17.90;99.90;;;;;;6308763;22;19914;-85
2022/07/15 08:28:33;;;;;;;;;;;18.20;99.90;;;;;;6336267;22;19918;-81
2022/07/15 08:30:59;;;;;;;;;;;18.20;99.90;;;;;;6361751;22;19914;-82
2022/07/15 08:33:25;;;;;;;;;;;18.20;99.90;;;;;;6305900;22;20012;-85
2022/07/15 08:35:51;;;;;;;;;;;18.00;99.90;;;;;;6332322;22;19937;-80
2022/07/15 08:38:17;;;;;;;;;;;17.70;99.90;;;;;;6333005;22;19918;-82
2022/07/15 08:40:43;;;;;;;;;;;17.50;99.90;;;;;;6307116;22;19914;-82
2022/07/15 08:43:12;;;;;;;;;;;17.40;99.90;;;;;;6308645;22;19914;-81
2022/07/15 08:45:39;;;;;;;;;;;17.30;99.90;;;;;;6333364;22;19929;-82
2022/07/15 08:48:12;;;;;;;;;;;17.30;99.90;;;;;;6307172;22;19946;-80
2022/07/15 08:50:38;;;;;;;;;;;17.30;99.90;;;;;;6359562;22;20255;-81
2022/07/15 08:53:05;;;;;;;;;;;17.40;99.90;;;;;;6310021;22;19917;-79
2022/07/15 08:55:30;;;;;;;;;;;17.40;99.90;;;;;;6335740;22;19910;-79
2022/07/15 08:58:02;;;;;;;;;;;17.40;99.90;;;;;;6335506;22;20010;-81
2022/07/15 09:00:29;;;;;;;;;;;17.70;99.90;;;;;;6309871;22;19921;-80
2022/07/15 09:02:56;;;;;;;;;;;18.70;99.90;;;;;;6335178;22;19967;-81
2022/07/15 09:05:38;;;;;;;;;;;19.70;99.90;;;;;;6306149;22;19917;-81
2022/07/15 09:08:08;;;;;;;;;;;20.40;99.90;;;;;;6335487;22;20330;-83
2022/07/15 09:10:43;;;;;;;;;;;20.30;99.90;;;;;;6309511;22;19953;-80
2022/07/15 09:13:33;;;;;;;;;;;20.00;99.90;;;;;;6335394;22;19948;-82
2022/07/15 09:16:00;;;;;;;;;;;19.70;99.90;;;;;;6309488;22;19987;-83
2022/07/15 09:18:30;;;;;;;;;;;19.30;99.90;;;;;;6333530;22;20243;-81
2022/07/15 09:20:57;;;;;;;;;;;19.30;99.90;;;;;;6333681;22;19910;-85
2022/07/15 09:23:29;;;;;;;;;;;19.20;99.90;;;;;;6310671;22;19933;-86
2022/07/15 09:26:00;;;;;;;;;;;19.10;99.90;;;;;;6336343;22;19921;-83
2022/07/15 09:28:39;;;;;;;;;;;18.70;99.90;;;;;;6309757;22;20032;-83
2022/07/15 09:33:51;;;;;;;;;;;17.90;99.90;;;;;;6335811;22;19971;-81
2022/07/15 09:36:21;;;;;;;;;;;17.70;99.90;;;;;;6335900;22;20047;-84
2022/07/15 09:38:47;;;;;;;;;;;17.60;99.90;;;;;;6338490;22;20214;-81
2022/07/15 09:41:31;;;;;;;;;;;17.40;99.90;;;;;;6311901;22;20319;-85
2022/07/15 09:44:01;;;;;;;;;;;17.50;99.90;;;;;;6312429;22;20247;-83
2022/07/15 09:46:28;;;;;;;;;;;17.70;99.90;;;;;;6310296;22;19925;-81
2022/07/15 09:48:54;;;;;;;;;;;17.80;99.90;;;;;;6333844;22;19910;-82
2022/07/15 09:51:20;;;;;;;;;;;17.80;99.90;;;;;;6308036;22;19918;-82
2022/07/15 09:53:47;;;;;;;;;;;17.90;99.90;;;;;;6309405;22;19925;-83
2022/07/15 09:56:14;;;;;;;;;;;18.00;99.90;;;;;;6307469;22;19941;-84
2022/07/15 09:58:41;;;;;;;;;;;18.10;99.90;;;;;;6308773;22;20262;-83
2022/07/15 10:01:08;;;;;;;;;;;18.20;99.90;;;;;;6308145;22;19910;-84
2022/07/15 10:03:34;;;;;;;;;;;18.10;99.90;;;;;;6282190;22;19918;-85
2022/07/15 10:06:02;;;;;;;;;;;18.10;99.90;;;;;;6307181;22;20262;-83
2022/07/15 10:08:29;;;;;;;;;;;18.00;99.90;;;;;;6335069;22;19979;-84
2022/07/15 10:10:55;;;;;;;;;;;18.00;99.90;;;;;;6308924;22;20308;-84
2022/07/15 10:13:39;;;;;;;;;;;18.00;99.90;;;;;;6308221;22;19989;-83
2022/07/15 10:16:05;;;;;;;;;;;17.90;99.90;;;;;;6307403;22;19993;-83
2022/07/15 10:18:37;;;;;;;;;;;17.90;99.90;;;;;;6332492;22;20327;-81
2022/07/15 10:21:22;;;;;;;;;;;18.00;99.90;;;;;;6306397;22;19918;-84
2022/07/15 10:23:57;;;;;;;;;;;18.10;99.90;;;;;;6309214;22;19939;-83
2022/07/15 10:26:43;;;;;;;;;;;18.10;99.90;;;;;;6334785;22;19971;-82
2022/07/15 10:29:09;;;;;;;;;;;18.10;99.90;;;;;;6307693;22;20009;-81
2022/07/15 10:31:37;;;;;;;;;;;18.30;99.90;;;;;;6334278;22;20331;-80
2022/07/15 10:34:03;;;;;;;;;;;18.30;99.90;;;;;;6332270;22;20394;-81
2022/07/15 10:36:53;;;;;;;;;;;18.40;99.90;;;;;;6332959;22;19950;-82
2022/07/15 10:39:21;;;;;;;;;;;18.40;99.90;;;;;;6308290;22;20176;-83
2022/07/15 10:42:01;;;;;;;;;;;18.40;99.90;;;;;;6334517;22;19989;-85
2022/07/15 10:44:28;;;;;;;;;;;18.50;99.90;;;;;;6308489;22;20024;-82
2022/07/15 10:47:12;;;;;;;;;;;18.50;99.90;;;;;;6334842;22;19914;-81
2022/07/15 10:49:48;;;;;;;;;;;18.40;99.90;;;;;;6331430;22;19967;-83
2022/07/15 10:52:14;;;;;;;;;;;18.30;99.90;;;;;;6334734;22;19910;-82
2022/07/15 10:54:41;;;;;;;;;;;18.10;99.90;;;;;;6308621;22;19918;-84
2022/07/15 10:57:08;;;;;;;;;;;17.80;99.90;;;;;;6307733;22;20404;-82
2022/07/15 10:59:41;;;;;;;;;;;17.70;99.90;;;;;;6333525;22;19918;-84
2022/07/15 11:02:06;;;;;;;;;;;17.50;99.90;;;;;;6333821;22;19918;-82
2022/07/15 11:04:33;;;;;;;;;;;17.40;99.90;;;;;;6304232;22;20038;-82
2022/07/15 11:07:12;;;;;;;;;;;17.30;99.90;;;;;;6307937;22;20305;-82
2022/07/15 11:09:57;;;;;;;;;;;17.20;99.90;;;;;;6299604;22;19975;-80
2022/07/15 11:12:29;;;;;;;;;;;17.20;99.90;;;;;;6328842;22;19957;-80
2022/07/15 11:14:56;;;;;;;;;;;17.30;99.90;;;;;;6333311;22;19914;-83
2022/07/15 11:17:28;;;;;;;;;;;17.30;99.90;;;;;;6328202;22;19918;-80
2022/07/15 11:19:55;;;;;;;;;;;17.40;99.90;;;;;;6268883;22;19919;-84
2022/07/15 11:22:39;;;;;;;;;;;17.40;99.90;;;;;;6274929;22;20045;-93
2022/07/15 11:25:06;;;;;;;;;;;17.50;99.90;;;;;;6248354;22;19926;-80
2022/07/15 11:27:32;;;;;;;;;;;17.60;99.90;;;;;;6275492;22;20331;-88
2022/07/15 11:30:02;;;;;;;;;;;17.70;99.90;;;;;;6274528;22;19989;-83
2022/07/15 11:32:29;;;;;;;;;;;17.70;99.90;;;;;;6257258;22;19926;-80
2022/07/15 11:35:04;;;;;;;;;;;17.80;99.90;;;;;;6215648;22;20414;-90
2022/07/15 11:37:31;;;;;;;;;;;17.90;99.90;;;;;;6218787;22;19938;-85
2022/07/15 11:45:59;;;;;;;;;;;18.20;99.90;;;;;;6242617;22;19919;-83
2022/07/15 11:48:25;;;;;;;;;;;18.30;99.90;;;;;;6217781;22;20393;-81
2022/07/15 11:50:57;;;;;;;;;;;18.40;99.90;;;;;;6270539;22;19937;-81
2022/07/15 11:53:45;;;;;;;;;;;18.30;99.90;;;;;;6268346;22;19986;-82
2022/07/15 11:56:12;;;;;;;;;;;18.20;99.90;;;;;;6218511;22;19986;-89
2022/07/15 11:58:42;;;;;;;;;;;18.10;99.90;;;;;;6242844;22;19923;-81
2022/07/15 12:01:10;;;;;;;;;;;18.00;99.90;;;;;;6243671;22;19962;-87
2022/07/15 12:03:42;;;;;;;;;;;17.80;99.90;;;;;;6242294;22;20465;-86
2022/07/15 12:06:09;;;;;;;;;;;17.70;99.90;;;;;;6240868;22;19915;-85
2022/07/15 12:08:36;;;;;;;;;;;17.60;99.90;;;;;;6217104;22;20331;-86
2022/07/15 12:11:25;;;;;;;;;;;17.50;99.90;;;;;;6247738;22;20002;-89
2022/07/15 12:13:55;;;;;;;;;;;17.40;99.90;;;;;;6266537;22;19919;-84
2022/07/15 12:16:23;;;;;;;;;;;17.60;99.90;;;;;;6217014;22;19915;-86
2022/07/15 12:18:49;;;;;;;;;;;17.80;99.90;;;;;;6236148;22;19993;-79
2022/07/15 12:21:21;;;;;;;;;;;18.00;99.90;;;;;;6216175;22;19918;-80
2022/07/15 12:24:01;;;;;;;;;;;18.20;99.90;;;;;;6218047;22;19942;-85
2022/07/15 12:26:26;;;;;;;;;;;18.20;99.90;;;;;;6220169;22;19919;-85
2022/07/15 12:28:58;;;;;;;;;;;18.20;99.90;;;;;;6218518;22;19915;-86
2022/07/15 12:31:29;;;;;;;;;;;18.10;99.90;;;;;;6246367;22;19926;-86
2022/07/15 12:33:55;;;;;;;;;;;18.00;99.90;;;;;;6245751;22;19915;-89
2022/07/15 12:36:23;;;;;;;;;;;18.20;99.90;;;;;;6270894;22;19923;-84
2022/07/15 12:39:05;;;;;;;;;;;18.20;99.90;;;;;;6272238;22;19919;-87
2022/07/15 12:41:32;;;;;;;;;;;18.20;99.90;;;;;;6246215;22;19922;-86
2022/07/15 12:43:59;;;;;;;;;;;18.10;99.90;;;;;;6221269;22;19922;-92
2022/07/15 12:47:03;;;;;;;;;;;18.10;99.90;;;;;;6220554;22;20528;-86
2022/07/15 12:49:48;;;;;;;;;;;18.10;99.90;;;;;;6146488;23;20091;-85
2022/07/15 12:52:33;;;;;;;;;;;18.10;99.90;;;;;;6123723;23;19922;-92
2022/07/15 12:55:10;;;;;;;;;;;18.00;99.90;;;;;;6212803;22;19919;-88
2022/07/15 12:57:36;;;;;;;;;;;18.00;99.90;;;;;;6222784;22;19926;-85
2022/07/15 13:00:09;;;;;;;;;;;17.90;99.90;;;;;;6221243;22;19919;-90
2022/07/15 13:02:53;;;;;;;;;;;17.80;99.90;;;;;;6247236;22;20287;-88
2022/07/15 13:05:21;;;;;;;;;;;17.70;99.90;;;;;;6219325;22;19965;-88
2022/07/15 13:07:47;;;;;;;;;;;17.70;99.90;;;;;;6272027;22;19915;-90
2022/07/15 13:10:13;;;;;;;;;;;17.70;99.90;;;;;;6220927;22;19972;-88
2022/07/15 13:12:39;;;;;;;;;;;17.60;99.90;;;;;;6220031;22;20349;-85
2022/07/15 13:15:06;;;;;;;;;;;17.60;99.90;;;;;;6246323;22;19919;-88
2022/07/15 13:17:35;;;;;;;;;;;17.60;99.90;;;;;;6221653;22;19915;-92
2022/07/15 13:20:04;;;;;;;;;;;17.70;99.90;;;;;;6282981;22;19993;-92
2022/07/15 13:22:31;;;;;;;;;;;17.70;99.90;;;;;;6248461;22;19972;-84
2022/07/15 13:24:57;;;;;;;;;;;17.80;99.90;;;;;;6250718;22;20290;-85
2022/07/15 13:27:24;;;;;;;;;;;17.80;99.90;;;;;;6249187;22;20696;-83
2022/07/15 13:29:52;;;;;;;;;;;17.80;99.90;;;;;;6273860;22;19960;-86
2022/07/15 13:32:18;;;;;;;;;;;17.80;99.90;;;;;;6225792;22;19915;-85
2022/07/15 13:34:45;;;;;;;;;;;17.80;99.90;;;;;;6248319;22;19921;-87
2022/07/15 13:37:11;;;;;;;;;;;17.80;99.90;;;;;;6250493;22;20015;-89
2022/07/15 13:39:37;;;;;;;;;;;17.80;99.90;;;;;;6225679;22;20327;-86
2022/07/15 13:42:04;;;;;;;;;;;17.90;99.90;;;;;;6329226;22;19986;-92
2022/07/15 13:44:29;;;;;;;;;;;18.00;99.90;;;;;;6225245;22;20075;-88
2022/07/15 13:46:56;;;;;;;;;;;18.10;99.90;;;;;;6249538;22;19965;-91
2022/07/15 13:51:22;;;;;;;;;;;18.20;99.90;;;;;;6273750;22;20393;-89
2022/07/15 13:52:08;;;;;;;;;;;18.30;99.90;;;;;;6306136;22;19990;-89
2022/07/15 13:54:35;;;;;;;;;;;18.40;99.90;;;;;;6251081;22;20362;-86
2022/07/15 13:57:01;;;;;;;;;;;18.50;99.90;;;;;;6225035;22;19926;-85
2022/07/15 13:59:27;;;;;;;;;;;18.60;99.90;;;;;;6275972;22;19915;-85
2022/07/15 14:01:53;;;;;;;;;;;18.60;99.90;;;;;;6249262;22;20001;-88
2022/07/15 14:04:19;;;;;;;;;;;18.60;99.90;;;;;;6274279;22;19915;-83
2022/07/15 14:06:45;;;;;;;;;;;18.60;99.90;;;;;;6248048;22;19922;-85
2022/07/15 14:09:30;;;;;;;;;;;18.70;99.90;;;;;;6276199;22;20397;-88
2022/07/15 14:11:56;;;;;;;;;;;18.80;99.90;;;;;;6249217;22;19915;-91
2022/07/15 14:14:22;;;;;;;;;;;18.80;99.90;;;;;;6276782;22;19980;-84
2022/07/15 14:16:48;;;;;;;;;;;18.80;99.90;;;;;;6251186;22;19921;-81
2022/07/15 14:19:14;;;;;;;;;;;18.80;99.90;;;;;;6211475;22;19965;-89
2022/07/15 14:21:46;;;;;;;;;;;18.70;99.90;;;;;;6218712;22;19923;-89
2022/07/15 14:24:12;;;;;;;;;;;18.60;99.90;;;;;;6245189;22;20216;-86
2022/07/15 14:26:38;;;;;;;;;;;18.60;99.90;;;;;;6219468;22;19915;-88
2022/07/15 14:29:04;;;;;;;;;;;18.60;99.90;;;;;;6219984;22;19919;-84
2022/07/15 14:31:31;;;;;;;;;;;18.60;99.90;;;;;;6219972;22;20401;-89
2022/07/15 14:33:57;;;;;;;;;;;18.60;99.90;;;;;;6217326;22;19969;-87
2022/07/15 14:36:23;;;;;;;;;;;18.70;99.90;;;;;;6243983;22;19919;-84
2022/07/15 14:38:49;;;;;;;;;;;18.70;99.90;;;;;;6271078;22;19993;-88
2022/07/15 14:41:15;;;;;;;;;;;18.70;99.90;;;;;;6245473;22;19915;-86
2022/07/15 14:43:41;;;;;;;;;;;18.70;99.90;;;;;;6194533;22;19926;-85
2022/07/15 14:46:08;;;;;;;;;;;18.80;99.90;;;;;;6218421;22;20263;-86
2022/07/15 14:48:35;;;;;;;;;;;18.80;99.90;;;;;;6243740;22;19915;-88
2022/07/15 14:51:01;;;;;;;;;;;18.80;99.90;;;;;;6193896;22;19977;-88
2022/07/15 14:53:27;;;;;;;;;;;18.80;99.90;;;;;;6243857;22;19915;-89
2022/07/15 14:55:53;;;;;;;;;;;18.90;99.90;;;;;;6218251;22;19922;-86
2022/07/15 14:58:19;;;;;;;;;;;18.90;99.90;;;;;;6243609;22;19919;-86
2022/07/15 15:01:03;;;;;;;;;;;18.90;99.90;;;;;;6221248;22;19951;-89
2022/07/15 15:03:29;;;;;;;;;;;18.90;99.90;;;;;;6217002;22;19923;-86
2022/07/15 15:05:56;;;;;;;;;;;18.90;99.90;;;;;;6241120;22;20503;-84
2022/07/15 15:08:23;;;;;;;;;;;18.80;99.90;;;;;;6191676;22;19953;-87
2022/07/15 15:10:49;;;;;;;;;;;18.70;99.90;;;;;;6216072;22;19919;-84
2022/07/15 15:13:14;;;;;;;;;;;18.70;99.90;;;;;;6241315;22;19953;-86
2022/07/15 15:15:40;;;;;;;;;;;18.70;99.90;;;;;;6216777;22;19915;-82
2022/07/15 15:18:06;;;;;;;;;;;18.70;99.90;;;;;;6216650;22;20252;-85
2022/07/15 15:20:34;;;;;;;;;;;18.70;99.90;;;;;;6269767;22;19918;-87
2022/07/15 15:23:02;;;;;;;;;;;18.70;99.90;;;;;;6249652;22;19915;-90
2022/07/15 15:28:30;;;;;;;;;;;18.70;99.90;;;;;;6210295;23;19923;-81
2022/07/15 15:30:56;;;;;;;;;;;18.70;99.90;;;;;;6234489;22;20229;-83
2022/07/15 15:33:22;;;;;;;;;;;18.80;99.90;;;;;;6297986;22;20056;-82
2022/07/15 15:35:48;;;;;;;;;;;18.80;99.90;;;;;;6270409;22;20574;-82